Ares, Brazil
Current Conditions -  °F | °C
As of 5:00 AM on Thursday 23 Oct 2014 (Local Time) from SBNT Reporting Station
Broken Clouds Broken Clouds  
Wind Chill: 72°   Ceiling: 10000
Heat Index: 72°   Visibility: 6mi
Dew Point: 68°   Wind: 6mph
Humidity: 88%   Direction: 190°S
Pressure: 29.94"   Gusts: NA
Location:  6.19°S, 35.16°W
Report Text: SBNT 230800Z 19005KT 9999 FEW015 SCT020 BKN100 22/20 Q1014
Loading
Personal Weather Stations






























Interactive Weather Map
Tropical Storm Tracking
New forecast layout! Learn more

10-Day Weather Forecast

Advertisements
Track Severe Weather on mobile